sensor_id;sensor_type;location;lat;lon;timestamp;pressure;altitude;pressure_sealevel;temperature;humidity
9893;BME280;4985;49.092;8.542;2022-09-24T00:01:48;99060.12;;;19.38;49.77
9893;BME280;4985;49.092;8.542;2022-09-24T00:04:16;99047.59;;;19.38;49.76
9893;BME280;4985;49.092;8.542;2022-09-24T00:06:44;99044.09;;;19.38;49.76
9893;BME280;4985;49.092;8.542;2022-09-24T00:09:13;99044.09;;;19.38;49.76
9893;BME280;4985;49.092;8.542;2022-09-24T00:11:40;99038.75;;;19.38;49.74
9893;BME280;4985;49.092;8.542;2022-09-24T00:14:08;99046.78;;;19.38;49.76
9893;BME280;4985;49.092;8.542;2022-09-24T00:16:34;99049.44;;;19.38;49.76
9893;BME280;4985;49.092;8.542;2022-09-24T00:19:03;99038.75;;;19.38;49.76
9893;BME280;4985;49.092;8.542;2022-09-24T00:21:32;99042.47;;;19.37;49.75
9893;BME280;4985;49.092;8.542;2022-09-24T00:24:00;99046.16;;;19.36;49.77
9893;BME280;4985;49.092;8.542;2022-09-24T00:26:27;99046.16;;;19.36;49.76
9893;BME280;4985;49.092;8.542;2022-09-24T00:29:13;99046.16;;;19.36;49.76
9893;BME280;4985;49.092;8.542;2022-09-24T00:31:41;99033.63;;;19.36;49.75
9893;BME280;4985;49.092;8.542;2022-09-24T00:34:09;99028.16;;;19.31;49.77
9893;BME280;4985;49.092;8.542;2022-09-24T00:36:36;99022.38;;;19.34;49.76
9893;BME280;4985;49.092;8.542;2022-09-24T00:39:03;99013.31;;;19.35;49.74
9893;BME280;4985;49.092;8.542;2022-09-24T00:41:32;99012.50;;;19.35;49.76
9893;BME280;4985;49.092;8.542;2022-09-24T00:43:59;99021.56;;;19.34;49.77
9893;BME280;4985;49.092;8.542;2022-09-24T00:46:29;99026.88;;;19.34;49.76
9893;BME280;4985;49.092;8.542;2022-09-24T00:48:59;99018.87;;;19.34;49.76
9893;BME280;4985;49.092;8.542;2022-09-24T00:51:29;99011.09;;;19.32;49.76
9893;BME280;4985;49.092;8.542;2022-09-24T00:53:59;99003.09;;;19.32;49.77
9893;BME280;4985;49.092;8.542;2022-09-24T00:56:29;98998.56;;;19.33;49.77
9893;BME280;4985;49.092;8.542;2022-09-24T00:58:59;99000.44;;;19.32;49.76
9893;BME280;4985;49.092;8.542;2022-09-24T01:01:27;98997.75;;;19.32;49.75
9893;BME280;4985;49.092;8.542;2022-09-24T01:03:56;98988.72;;;19.33;49.74
9893;BME280;4985;49.092;8.542;2022-09-24T01:06:24;98996.13;;;19.31;49.76
9893;BME280;4985;49.092;8.542;2022-09-24T01:08:52;98994.28;;;19.32;49.76
9893;BME280;4985;49.092;8.542;2022-09-24T01:11:33;98992.66;;;19.31;49.75
9893;BME280;4985;49.092;8.542;2022-09-24T01:14:33;98995.31;;;19.31;49.75
9893;BME280;4985;49.092;8.542;2022-09-24T01:17:13;98990.81;;;19.31;49.74
9893;BME280;4985;49.092;8.542;2022-09-24T01:23:02;98991.84;;;19.30;49.75
9893;BME280;4985;49.092;8.542;2022-09-24T01:25:40;98983.84;;;19.30;49.75
9893;BME280;4985;49.092;8.542;2022-09-24T01:28:25;98980.34;;;19.30;49.75
9893;BME280;4985;49.092;8.542;2022-09-24T01:31:02;98973.38;;;19.29;49.77
9893;BME280;4985;49.092;8.542;2022-09-24T01:33:32;98976.06;;;19.29;49.76
9893;BME280;4985;49.092;8.542;2022-09-24T01:36:03;98979.78;;;19.28;49.76
9893;BME280;4985;49.092;8.542;2022-09-24T01:38:35;98981.41;;;19.29;49.77
9893;BME280;4985;49.092;8.542;2022-09-24T01:41:03;98976.88;;;19.29;49.74
9893;BME280;4985;49.092;8.542;2022-09-24T01:43:32;98976.06;;;19.29;49.75
9893;BME280;4985;49.092;8.542;2022-09-24T01:46:02;98976.06;;;19.29;49.76
9893;BME280;4985;49.092;8.542;2022-09-24T01:48:31;98969.34;;;19.26;49.76
9893;BME280;4985;49.092;8.542;2022-09-24T01:51:01;98967.25;;;19.28;49.76
9893;BME280;4985;49.092;8.542;2022-09-24T01:53:33;98965.37;;;19.29;49.73
9893;BME280;4985;49.092;8.542;2022-09-24T01:56:05;98962.94;;;19.27;49.75
9893;BME280;4985;49.092;8.542;2022-09-24T01:58:37;98950.03;;;19.24;49.75
9893;BME280;4985;49.092;8.542;2022-09-24T02:01:11;98951.47;;;19.27;49.75
9893;BME280;4985;49.092;8.542;2022-09-24T02:03:44;98949.59;;;19.27;49.74
9893;BME280;4985;49.092;8.542;2022-09-24T02:06:15;98947.97;;;19.26;49.73
9893;BME280;4985;49.092;8.542;2022-09-24T02:08:45;98939.97;;;19.26;49.72
9893;BME280;4985;49.092;8.542;2022-09-24T02:11:15;98934.03;;;19.24;49.73
9893;BME280;4985;49.092;8.542;2022-09-24T02:13:44;98939.16;;;19.26;49.74
9893;BME280;4985;49.092;8.542;2022-09-24T02:16:17;98937.50;;;19.25;49.75
9893;BME280;4985;49.092;8.542;2022-09-24T02:18:48;98932.16;;;19.25;49.75
9893;BME280;4985;49.092;8.542;2022-09-24T02:21:17;98938.31;;;19.25;49.76
9893;BME280;4985;49.092;8.542;2022-09-24T02:23:46;98936.69;;;19.24;49.75
9893;BME280;4985;49.092;8.542;2022-09-24T02:26:16;98944.94;;;19.23;49.75
9893;BME280;4985;49.092;8.542;2022-09-24T02:28:43;98942.03;;;19.24;49.76
9893;BME280;4985;49.092;8.542;2022-09-24T02:31:12;98936.69;;;19.24;49.74
9893;BME280;4985;49.092;8.542;2022-09-24T02:33:44;98930.53;;;19.24;49.74
9893;BME280;4985;49.092;8.542;2022-09-24T02:36:31;98927.06;;;19.23;49.74
9893;BME280;4985;49.092;8.542;2022-09-24T02:38:58;98922.78;;;19.22;49.72
9893;BME280;4985;49.092;8.542;2022-09-24T02:41:25;98926.03;;;19.24;49.72
9893;BME280;4985;49.092;8.542;2022-09-24T02:43:52;98924.16;;;19.25;49.71
9893;BME280;4985;49.092;8.542;2022-09-24T02:46:19;98926.03;;;19.24;49.72
9893;BME280;4985;49.092;8.542;2022-09-24T02:48:47;98926.25;;;19.23;49.72
9893;BME280;4985;49.092;8.542;2022-09-24T02:51:13;98917.19;;;19.24;49.72
9893;BME280;4985;49.092;8.542;2022-09-24T02:53:40;98929.72;;;19.23;49.72
9893;BME280;4985;49.092;8.542;2022-09-24T02:56:06;98934.25;;;19.23;49.72
9893;BME280;4985;49.092;8.542;2022-09-24T02:58:34;98945.75;;;19.23;49.71
9893;BME280;4985;49.092;8.542;2022-09-24T03:01:02;98944.13;;;19.22;49.72
9893;BME280;4985;49.092;8.542;2022-09-24T03:03:28;98940.41;;;19.23;49.71
9893;BME280;4985;49.092;8.542;2022-09-24T03:05:57;98934.25;;;19.23;49.70
9893;BME280;4985;49.092;8.542;2022-09-24T03:08:23;98923.81;;;19.21;49.70
9893;BME280;4985;49.092;8.542;2022-09-24T03:10:50;98927.31;;;19.22;49.70
9893;BME280;4985;49.092;8.542;2022-09-24T03:13:17;98921.16;;;19.21;49.71
9893;BME280;4985;49.092;8.542;2022-09-24T03:15:44;98921.97;;;19.22;49.70
9893;BME280;4985;49.092;8.542;2022-09-24T03:18:10;98928.34;;;19.20;49.70
9893;BME280;4985;49.092;8.542;2022-09-24T03:20:37;98921.97;;;19.22;49.69
9893;BME280;4985;49.092;8.542;2022-09-24T03:23:05;98925.69;;;19.20;49.69
9893;BME280;4985;49.092;8.542;2022-09-24T03:25:32;98912.34;;;19.20;49.69
9893;BME280;4985;49.092;8.542;2022-09-24T03:27:58;98904.31;;;19.20;49.68
9893;BME280;4985;49.092;8.542;2022-09-24T03:30:25;98909.66;;;19.20;49.68
9893;BME280;4985;49.092;8.542;2022-09-24T03:33:09;98902.69;;;19.19;49.69
9893;BME280;4985;49.092;8.542;2022-09-24T03:35:36;98908.03;;;19.19;49.71
9893;BME280;4985;49.092;8.542;2022-09-24T03:38:02;98908.03;;;19.19;49.69
9893;BME280;4985;49.092;8.542;2022-09-24T03:40:30;98911.75;;;19.18;49.69
9893;BME280;4985;49.092;8.542;2022-09-24T03:42:57;98909.09;;;19.18;49.69
9893;BME280;4985;49.092;8.542;2022-09-24T03:45:23;98910.94;;;19.18;49.69
9893;BME280;4985;49.092;8.542;2022-09-24T03:47:50;98912.78;;;19.17;49.71
9893;BME280;4985;49.092;8.542;2022-09-24T03:50:16;98915.47;;;19.17;49.71
9893;BME280;4985;49.092;8.542;2022-09-24T03:52:43;98919.19;;;19.16;49.72
9893;BME280;4985;49.092;8.542;2022-09-24T03:55:09;98920.81;;;19.17;49.71
9893;BME280;4985;49.092;8.542;2022-09-24T03:57:37;98919.19;;;19.16;49.73
9893;BME280;4985;49.092;8.542;2022-09-24T04:00:04;98911.16;;;19.16;49.70
9893;BME280;4985;49.092;8.542;2022-09-24T04:02:31;98904.78;;;19.17;49.69
9893;BME280;4985;49.092;8.542;2022-09-24T04:04:58;98907.69;;;19.16;49.68
9893;BME280;4985;49.092;8.542;2022-09-24T04:07:24;98914.66;;;19.17;49.67
9893;BME280;4985;49.092;8.542;2022-09-24T04:09:51;98911.16;;;19.16;49.68
9893;BME280;4985;49.092;8.542;2022-09-24T04:12:17;98913.03;;;19.16;49.68
9893;BME280;4985;49.092;8.542;2022-09-24T04:14:45;98903.16;;;19.16;49.67
9893;BME280;4985;49.092;8.542;2022-09-24T04:17:12;98899.91;;;19.14;49.71
9893;BME280;4985;49.092;8.542;2022-09-24T04:19:41;98900.72;;;19.15;49.69
9893;BME280;4985;49.092;8.542;2022-09-24T04:22:08;98899.91;;;19.14;49.70
9893;BME280;4985;49.092;8.542;2022-09-24T04:24:35;98895.59;;;19.13;49.72
9893;BME280;4985;49.092;8.542;2022-09-24T04:27:02;98902.59;;;19.14;49.71
9893;BME280;4985;49.092;8.542;2022-09-24T04:29:29;98898.25;;;19.13;49.71
9893;BME280;4985;49.092;8.542;2022-09-24T04:31:57;98908.94;;;19.13;49.71
9893;BME280;4985;49.092;8.542;2022-09-24T04:34:23;98900.94;;;19.13;49.70
9893;BME280;4985;49.092;8.542;2022-09-24T04:36:50;98903.59;;;19.13;49.71
9893;BME280;4985;49.092;8.542;2022-09-24T04:39:16;98910.59;;;19.14;49.70
9893;BME280;4985;49.092;8.542;2022-09-24T04:41:43;98908.12;;;19.13;49.71
9893;BME280;4985;49.092;8.542;2022-09-24T04:44:12;98898.25;;;19.13;49.70
9893;BME280;4985;49.092;8.542;2022-09-24T04:46:39;98901.97;;;19.12;49.71
9893;BME280;4985;49.092;8.542;2022-09-24T04:49:08;98893.97;;;19.12;49.69
9893;BME280;4985;49.092;8.542;2022-09-24T04:51:36;98898.25;;;19.13;49.67
9893;BME280;4985;49.092;8.542;2022-09-24T04:54:02;98895.81;;;19.12;49.66
9893;BME280;4985;49.092;8.542;2022-09-24T04:56:29;98900.94;;;19.13;49.66
9893;BME280;4985;49.092;8.542;2022-09-24T04:58:56;98892.34;;;19.11;49.67
9893;BME280;4985;49.092;8.542;2022-09-24T05:01:23;98893.16;;;19.12;49.67
9893;BME280;4985;49.092;8.542;2022-09-24T05:03:50;98899.31;;;19.12;49.66
9893;BME280;4985;49.092;8.542;2022-09-24T05:06:18;98897.69;;;19.11;49.66
9893;BME280;4985;49.092;8.542;2022-09-24T05:08:45;98904.06;;;19.10;49.66
9893;BME280;4985;49.092;8.542;2022-09-24T05:11:11;98905.69;;;19.11;49.67
9893;BME280;4985;49.092;8.542;2022-09-24T05:13:38;98910.22;;;19.11;49.66
9893;BME280;4985;49.092;8.542;2022-09-24T05:16:05;98901.41;;;19.10;49.67
9893;BME280;4985;49.092;8.542;2022-09-24T05:18:31;98910.22;;;19.11;49.67
9893;BME280;4985;49.092;8.542;2022-09-24T05:20:58;98903.25;;;19.10;49.64
9893;BME280;4985;49.092;8.542;2022-09-24T05:23:26;98909.41;;;19.10;49.66
9893;BME280;4985;49.092;8.542;2022-09-24T05:25:52;98906.97;;;19.09;49.68
9893;BME280;4985;49.092;8.542;2022-09-24T05:28:36;98921.13;;;19.09;49.66
9893;BME280;4985;49.092;8.542;2022-09-24T05:31:04;98909.41;;;19.10;49.66
9893;BME280;4985;49.092;8.542;2022-09-24T05:33:30;98906.97;;;19.09;49.68
9893;BME280;4985;49.092;8.542;2022-09-24T05:35:57;98912.28;;;19.09;49.68
9893;BME280;4985;49.092;8.542;2022-09-24T05:38:23;98908.81;;;19.08;49.67
9893;BME280;4985;49.092;8.542;2022-09-24T05:40:51;98908.81;;;19.08;49.67
9893;BME280;4985;49.092;8.542;2022-09-24T05:43:19;98911.47;;;19.08;49.68
9893;BME280;4985;49.092;8.542;2022-09-24T05:45:46;98925.06;;;19.07;49.68
9893;BME280;4985;49.092;8.542;2022-09-24T05:48:14;98924.25;;;19.06;49.69
9893;BME280;4985;49.092;8.542;2022-09-24T05:50:41;98921.22;;;19.03;49.69
9893;BME280;4985;49.092;8.542;2022-09-24T05:53:08;98928.75;;;19.06;49.71
9893;BME280;4985;49.092;8.542;2022-09-24T05:55:34;98927.13;;;19.05;49.71
9893;BME280;4985;49.092;8.542;2022-09-24T05:58:03;98926.09;;;19.06;49.70
9893;BME280;4985;49.092;8.542;2022-09-24T06:00:30;98926.09;;;19.06;49.69
9893;BME280;4985;49.092;8.542;2022-09-24T06:03:01;98926.91;;;19.06;49.69
9893;BME280;4985;49.092;8.542;2022-09-24T06:05:28;98919.13;;;19.05;49.69
9893;BME280;4985;49.092;8.542;2022-09-24T06:07:55;98933.28;;;19.05;49.71
9893;BME280;4985;49.092;8.542;2022-09-24T06:10:22;98933.28;;;19.05;49.69
9893;BME280;4985;49.092;8.542;2022-09-24T06:12:50;98927.94;;;19.05;49.70
9893;BME280;4985;49.092;8.542;2022-09-24T06:15:19;98925.28;;;19.05;49.68
9893;BME280;4985;49.092;8.542;2022-09-24T06:17:46;98927.94;;;19.05;49.70
9893;BME280;4985;49.092;8.542;2022-09-24T06:20:13;98923.66;;;19.04;49.69
9893;BME280;4985;49.092;8.542;2022-09-24T06:22:39;98918.56;;;19.03;49.70
9893;BME280;4985;49.092;8.542;2022-09-24T06:25:07;98930.03;;;19.03;49.70
9893;BME280;4985;49.092;8.542;2022-09-24T06:27:34;98933.72;;;19.02;49.71
9893;BME280;4985;49.092;8.542;2022-09-24T06:30:00;98936.19;;;19.04;49.73
9893;BME280;4985;49.092;8.542;2022-09-24T06:32:28;98939.06;;;19.02;49.71
9893;BME280;4985;49.092;8.542;2022-09-24T06:34:55;98939.66;;;19.04;49.70
9893;BME280;4985;49.092;8.542;2022-09-24T06:37:22;98939.06;;;19.02;49.71
9893;BME280;4985;49.092;8.542;2022-09-24T06:39:48;98942.56;;;19.03;49.71
9893;BME280;4985;49.092;8.542;2022-09-24T06:42:15;98947.06;;;19.02;49.70
9893;BME280;4985;49.092;8.542;2022-09-24T06:44:41;98944.38;;;19.02;49.71
9893;BME280;4985;49.092;8.542;2022-09-24T06:47:08;98948.91;;;19.02;49.72
9893;BME280;4985;49.092;8.542;2022-09-24T06:49:37;98948.91;;;19.02;49.73
9893;BME280;4985;49.092;8.542;2022-09-24T06:52:05;98939.28;;;19.01;49.73
9893;BME280;4985;49.092;8.542;2022-09-24T06:54:31;98941.13;;;19.00;49.74
9893;BME280;4985;49.092;8.542;2022-09-24T06:56:58;98936.63;;;19.01;49.73
9893;BME280;4985;49.092;8.542;2022-09-24T06:59:24;98946.47;;;19.00;49.74
9893;BME280;4985;49.092;8.542;2022-09-24T07:01:51;98947.28;;;19.01;49.75
9893;BME280;4985;49.092;8.542;2022-09-24T07:04:17;98947.50;;;18.99;49.74
9893;BME280;4985;49.092;8.542;2022-09-24T07:06:45;98951.00;;;19.00;49.75
9893;BME280;4985;49.092;8.542;2022-09-24T07:09:29;98954.72;;;18.99;49.77
9893;BME280;4985;49.092;8.542;2022-09-24T07:11:57;98954.72;;;18.99;49.79
9893;BME280;4985;49.092;8.542;2022-09-24T07:14:25;98951.22;;;18.98;49.79
9893;BME280;4985;49.092;8.542;2022-09-24T07:16:52;98943.22;;;18.98;49.79
9893;BME280;4985;49.092;8.542;2022-09-24T07:19:18;98942.19;;;18.99;49.78
9893;BME280;4985;49.092;8.542;2022-09-24T07:21:46;98945.88;;;18.98;49.79
9893;BME280;4985;49.092;8.542;2022-09-24T07:24:13;98962.94;;;18.97;49.81
9893;BME280;4985;49.092;8.542;2022-09-24T07:26:39;98957.81;;;18.96;49.84
9893;BME280;4985;49.092;8.542;2022-09-24T07:29:06;98962.13;;;18.97;49.83
9893;BME280;4985;49.092;8.542;2022-09-24T07:31:33;98960.28;;;18.97;49.83
9893;BME280;4985;49.092;8.542;2022-09-24T07:34:01;98961.31;;;18.96;49.83
9893;BME280;4985;49.092;8.542;2022-09-24T07:36:27;98955.16;;;18.96;49.83
9893;BME280;4985;49.092;8.542;2022-09-24T07:38:56;98961.31;;;18.96;49.83
9893;BME280;4985;49.092;8.542;2022-09-24T07:41:23;98965.03;;;18.95;49.85
9893;BME280;4985;49.092;8.542;2022-09-24T07:43:50;98971.16;;;18.96;49.85
9893;BME280;4985;49.092;8.542;2022-09-24T07:46:16;98965.84;;;18.96;49.87
9893;BME280;4985;49.092;8.542;2022-09-24T07:48:44;98965.03;;;18.95;49.86
9893;BME280;4985;49.092;8.542;2022-09-24T07:51:12;98966.66;;;18.96;49.85
9893;BME280;4985;49.092;8.542;2022-09-24T07:53:38;98979.97;;;18.96;49.84
9893;BME280;4985;49.092;8.542;2022-09-24T07:56:07;98978.94;;;18.97;49.85
9893;BME280;4985;49.092;8.542;2022-09-24T07:58:33;98978.34;;;18.95;49.84
9893;BME280;4985;49.092;8.542;2022-09-24T08:01:00;98981.59;;;18.97;49.82
9893;BME280;4985;49.092;8.542;2022-09-24T08:03:27;98974.41;;;18.98;49.81
9893;BME280;4985;49.092;8.542;2022-09-24T08:05:54;98981.59;;;18.97;49.82
9893;BME280;4985;49.092;8.542;2022-09-24T08:08:23;98979.97;;;18.96;49.83
9893;BME280;4985;49.092;8.542;2022-09-24T08:10:49;98979.16;;;18.96;49.86
9893;BME280;4985;49.092;8.542;2022-09-24T08:13:17;98976.50;;;18.96;49.87
9893;BME280;4985;49.092;8.542;2022-09-24T08:15:44;98988.78;;;18.97;49.86
9893;BME280;4985;49.092;8.542;2022-09-24T08:18:11;98984.72;;;18.94;49.88
9893;BME280;4985;49.092;8.542;2022-09-24T08:20:37;98982.66;;;18.96;49.90
9893;BME280;4985;49.092;8.542;2022-09-24T08:23:06;98990.06;;;18.94;49.92
9893;BME280;4985;49.092;8.542;2022-09-24T08:25:34;98986.34;;;18.95;49.90
9893;BME280;4985;49.092;8.542;2022-09-24T08:28:01;98980.22;;;18.95;49.91
9893;BME280;4985;49.092;8.542;2022-09-24T08:30:30;98987.16;;;18.96;49.91
9893;BME280;4985;49.092;8.542;2022-09-24T08:32:57;98978.34;;;18.95;49.90
9893;BME280;4985;49.092;8.542;2022-09-24T08:35:24;98988.78;;;18.97;49.91
9893;BME280;4985;49.092;8.542;2022-09-24T08:37:52;98992.72;;;18.94;49.94
9893;BME280;4985;49.092;8.542;2022-09-24T08:40:21;98983.69;;;18.95;49.91
9893;BME280;4985;49.092;8.542;2022-09-24T08:42:52;98986.34;;;18.95;49.93
9893;BME280;4985;49.092;8.542;2022-09-24T08:45:20;98980.22;;;18.95;49.92
9893;BME280;4985;49.092;8.542;2022-09-24T08:48:10;98974.88;;;18.95;49.90
9893;BME280;4985;49.092;8.542;2022-09-24T08:50:44;98978.34;;;18.95;49.91
9893;BME280;4985;49.092;8.542;2022-09-24T08:53:17;98981.84;;;18.96;49.92
9893;BME280;4985;49.092;8.542;2022-09-24T08:55:47;98979.41;;;18.94;49.95
9893;BME280;4985;49.092;8.542;2022-09-24T08:58:28;98978.59;;;18.94;49.93
9893;BME280;4985;49.092;8.542;2022-09-24T09:01:04;98982.06;;;18.94;49.95
9893;BME280;4985;49.092;8.542;2022-09-24T09:03:35;98985.53;;;18.95;49.94
9893;BME280;4985;49.092;8.542;2022-09-24T09:06:11;98987.97;;;18.96;49.94
9893;BME280;4985;49.092;8.542;2022-09-24T09:08:47;98987.16;;;18.96;49.93
9893;BME280;4985;49.092;8.542;2022-09-24T09:11:21;98985.53;;;18.95;49.95
9893;BME280;4985;49.092;8.542;2022-09-24T09:13:51;98984.50;;;18.96;49.93
9893;BME280;4985;49.092;8.542;2022-09-24T09:16:24;98983.09;;;18.93;49.94
9893;BME280;4985;49.092;8.542;2022-09-24T09:18:55;98995.97;;;18.96;49.93
9893;BME280;4985;49.092;8.542;2022-09-24T09:21:28;98991.69;;;18.95;49.96
9893;BME280;4985;49.092;8.542;2022-09-24T09:23:58;98990.88;;;18.95;49.93
9893;BME280;4985;49.092;8.542;2022-09-24T09:26:26;98997.03;;;18.95;49.95
9893;BME280;4985;49.092;8.542;2022-09-24T09:28:55;98991.91;;;18.94;49.95
9893;BME280;4985;49.092;8.542;2022-09-24T09:31:31;99002.59;;;18.94;49.96
9893;BME280;4985;49.092;8.542;2022-09-24T09:34:20;99002.37;;;18.95;49.96
9893;BME280;4985;49.092;8.542;2022-09-24T09:37:02;99006.06;;;18.94;49.96
9893;BME280;4985;49.092;8.542;2022-09-24T09:39:38;99014.06;;;18.94;49.97
9893;BME280;4985;49.092;8.542;2022-09-24T09:42:24;99010.59;;;18.94;49.98
9893;BME280;4985;49.092;8.542;2022-09-24T09:44:52;99007.09;;;18.93;49.97
9893;BME280;4985;49.092;8.542;2022-09-24T09:47:24;99014.06;;;18.94;49.97
9893;BME280;4985;49.092;8.542;2022-09-24T09:49:55;99002.37;;;18.95;49.96
9893;BME280;4985;49.092;8.542;2022-09-24T09:52:26;99006.88;;;18.95;49.96
9893;BME280;4985;49.092;8.542;2022-09-24T09:54:54;99006.06;;;18.94;49.94
9893;BME280;4985;49.092;8.542;2022-09-24T09:57:23;99010.13;;;18.97;49.94
9893;BME280;4985;49.092;8.542;2022-09-24T09:59:52;98997.63;;;18.97;49.95
9893;BME280;4985;49.092;8.542;2022-09-24T10:02:24;99001.09;;;18.98;49.94
9893;BME280;4985;49.092;8.542;2022-09-24T10:04:55;98994.94;;;18.97;49.92
9893;BME280;4985;49.092;8.542;2022-09-24T10:07:23;98994.94;;;18.97;49.92
9893;BME280;4985;49.092;8.542;2022-09-24T10:10:10;98989.59;;;18.97;49.93
9893;BME280;4985;49.092;8.542;2022-09-24T10:12:42;98996.56;;;18.98;49.95
9893;BME280;4985;49.092;8.542;2022-09-24T10:15:16;99001.91;;;18.98;49.97
9893;BME280;4985;49.092;8.542;2022-09-24T10:17:44;99005.63;;;18.97;49.97
9893;BME280;4985;49.092;8.542;2022-09-24T10:20:17;98995.75;;;18.98;49.96
9893;BME280;4985;49.092;8.542;2022-09-24T10:22:46;98992.50;;;18.96;49.97
9893;BME280;4985;49.092;8.542;2022-09-24T10:25:16;98987.97;;;18.96;49.98
9893;BME280;4985;49.092;8.542;2022-09-24T10:27:45;98989.38;;;18.99;50.00
9893;BME280;4985;49.092;8.542;2022-09-24T10:30:14;98984.03;;;18.99;49.99
9893;BME280;4985;49.092;8.542;2022-09-24T10:33:00;98987.53;;;18.99;50.00
9893;BME280;4985;49.092;8.542;2022-09-24T10:35:30;98983.81;;;19.00;49.98
9893;BME280;4985;49.092;8.542;2022-09-24T10:38:00;98988.34;;;19.00;50.00
9893;BME280;4985;49.092;8.542;2022-09-24T10:40:30;98987.53;;;18.99;49.99
9893;BME280;4985;49.092;8.542;2022-09-24T10:42:58;98990.19;;;18.99;50.00
9893;BME280;4985;49.092;8.542;2022-09-24T10:45:51;98988.34;;;19.00;49.99
9893;BME280;4985;49.092;8.542;2022-09-24T10:48:20;98993.69;;;19.00;49.99
9893;BME280;4985;49.092;8.542;2022-09-24T10:50:56;98992.88;;;18.99;49.99
9893;BME280;4985;49.092;8.542;2022-09-24T10:53:37;98991.81;;;19.00;49.98
9893;BME280;4985;49.092;8.542;2022-09-24T10:56:16;98991.59;;;19.02;49.97
9893;BME280;4985;49.092;8.542;2022-09-24T10:59:04;98997.75;;;19.02;49.96
9893;BME280;4985;49.092;8.542;2022-09-24T11:01:38;98984.28;;;18.97;49.97
9893;BME280;4985;49.092;8.542;2022-09-24T11:04:21;98984.41;;;19.02;49.97
9893;BME280;4985;49.092;8.542;2022-09-24T11:07:14;98980.91;;;19.02;49.98
9893;BME280;4985;49.092;8.542;2022-09-24T11:09:50;98986.87;;;19.04;49.98
9893;BME280;4985;49.092;8.542;2022-09-24T11:12:27;98984.19;;;19.04;49.99
9893;BME280;4985;49.092;8.542;2022-09-24T11:15:13;98982.56;;;19.03;49.98
9893;BME280;4985;49.092;8.542;2022-09-24T11:17:51;98974.34;;;19.04;49.98
9893;BME280;4985;49.092;8.542;2022-09-24T11:20:26;98977.81;;;19.05;49.98
9893;BME280;4985;49.092;8.542;2022-09-24T11:23:30;98975.97;;;19.05;49.99
9893;BME280;4985;49.092;8.542;2022-09-24T11:26:07;98975.97;;;19.05;49.98
9893;BME280;4985;49.092;8.542;2022-09-24T11:29:00;98974.94;;;19.06;49.96
9893;BME280;4985;49.092;8.542;2022-09-24T11:31:36;98965.31;;;19.05;49.98
9893;BME280;4985;49.092;8.542;2022-09-24T11:34:17;98962.41;;;19.07;49.98
9893;BME280;4985;49.092;8.542;2022-09-24T11:37:01;98957.06;;;19.07;49.98
9893;BME280;4985;49.092;8.542;2022-09-24T11:39:45;98957.87;;;19.07;49.97
9893;BME280;4985;49.092;8.542;2022-09-24T11:42:21;98957.87;;;19.07;49.97
9893;BME280;4985;49.092;8.542;2022-09-24T11:45:01;98951.28;;;19.10;49.97
9893;BME280;4985;49.092;8.542;2022-09-24T11:47:45;98961.94;;;19.10;49.97
9893;BME280;4985;49.092;8.542;2022-09-24T11:50:22;98957.41;;;19.10;49.95
9893;BME280;4985;49.092;8.542;2022-09-24T11:52:54;98957.41;;;19.10;49.99
9893;BME280;4985;49.092;8.542;2022-09-24T11:55:25;98952.09;;;19.10;49.99
9893;BME280;4985;49.092;8.542;2022-09-24T11:58:05;98950.22;;;19.11;49.98
9893;BME280;4985;49.092;8.542;2022-09-24T12:00:41;98945.12;;;19.09;50.00
9893;BME280;4985;49.092;8.542;2022-09-24T12:03:16;98948.38;;;19.11;50.00
9893;BME280;4985;49.092;8.542;2022-09-24T12:05:45;98950.00;;;19.12;49.98
9893;BME280;4985;49.092;8.542;2022-09-24T12:08:18;98939.31;;;19.12;49.96
9893;BME280;4985;49.092;8.542;2022-09-24T12:10:55;98946.28;;;19.13;49.96
9893;BME280;4985;49.092;8.542;2022-09-24T12:13:26;98944.44;;;19.14;49.96
9893;BME280;4985;49.092;8.542;2022-09-24T12:15:56;98940.94;;;19.13;49.96
9893;BME280;4985;49.092;8.542;2022-09-24T12:18:25;98932.94;;;19.13;49.98
9893;BME280;4985;49.092;8.542;2022-09-24T12:20:57;98934.00;;;19.12;49.98
9893;BME280;4985;49.092;8.542;2022-09-24T12:23:28;98947.94;;;19.14;49.99
9893;BME280;4985;49.092;8.542;2022-09-24T12:25:58;98936.88;;;19.11;49.99
9893;BME280;4985;49.092;8.542;2022-09-24T12:28:28;98938.91;;;19.15;49.99
9893;BME280;4985;49.092;8.542;2022-09-24T12:31:24;98946.09;;;19.15;49.98
9893;BME280;4985;49.092;8.542;2022-09-24T12:34:16;98945.28;;;19.14;50.01
9893;BME280;4985;49.092;8.542;2022-09-24T12:36:53;98943.41;;;19.15;50.00
9893;BME280;4985;49.092;8.542;2022-09-24T12:39:25;98941.56;;;19.15;50.00
9893;BME280;4985;49.092;8.542;2022-09-24T12:41:58;98938.91;;;19.15;50.00
9893;BME280;4985;49.092;8.542;2022-09-24T12:44:32;98929.84;;;19.16;49.99
9893;BME280;4985;49.092;8.542;2022-09-24T12:47:01;98921.59;;;19.18;49.95
9893;BME280;4985;49.092;8.542;2022-09-24T12:49:31;98927.53;;;19.20;49.92
9893;BME280;4985;49.092;8.542;2022-09-24T12:52:01;98915.47;;;19.17;49.94
9893;BME280;4985;49.092;8.542;2022-09-24T12:54:31;98911.16;;;19.16;49.95
9893;BME280;4985;49.092;8.542;2022-09-24T12:57:08;98919.28;;;19.22;49.92
9893;BME280;4985;49.092;8.542;2022-09-24T12:59:47;98917.44;;;19.22;49.90
9893;BME280;4985;49.092;8.542;2022-09-24T13:02:16;98914.78;;;19.22;49.92
9893;BME280;4985;49.092;8.542;2022-09-24T13:04:48;98916.63;;;19.22;49.90
9893;BME280;4985;49.092;8.542;2022-09-24T13:07:27;98909.19;;;19.24;50.23
9893;BME280;4985;49.092;8.542;2022-09-24T13:09:54;98905.47;;;19.25;50.49
9893;BME280;4985;49.092;8.542;2022-09-24T13:12:28;98914.09;;;19.27;50.50
9893;BME280;4985;49.092;8.542;2022-09-24T13:15:00;98912.25;;;19.27;50.38
9893;BME280;4985;49.092;8.542;2022-09-24T13:17:29;98910.63;;;19.26;50.32
9893;BME280;4985;49.092;8.542;2022-09-24T13:19:58;98908.75;;;19.27;50.24
9893;BME280;4985;49.092;8.542;2022-09-24T13:22:28;98902.38;;;19.28;50.21
9893;BME280;4985;49.092;8.542;2022-09-24T13:25:19;98897.03;;;19.28;50.17
9893;BME280;4985;49.092;8.542;2022-09-24T13:27:59;98900.28;;;19.30;50.11
9893;BME280;4985;49.092;8.542;2022-09-24T13:30:37;98902.97;;;19.30;50.07
9893;BME280;4985;49.092;8.542;2022-09-24T13:33:17;98906.44;;;19.30;50.06
9893;BME280;4985;49.092;8.542;2022-09-24T13:35:53;98905.63;;;19.30;50.06
9893;BME280;4985;49.092;8.542;2022-09-24T13:38:29;98901.09;;;19.30;50.05
9893;BME280;4985;49.092;8.542;2022-09-24T13:41:01;98894.97;;;19.30;50.05
9893;BME280;4985;49.092;8.542;2022-09-24T13:43:39;98900.88;;;19.32;50.04
9893;BME280;4985;49.092;8.542;2022-09-24T13:46:10;98888.56;;;19.31;50.03